Time;durP1;ratioP1;P1;durP2;ratioP2;P2;SDS_P1;SDS_P2;PMS_P1;PMS_P2;Temp;Humidity;BMP_temperature;BMP_pressure;BME280_temperature;BME280_humidity;BME280_pressure;Samples;Min_cycle;Max_cycle;Signal;HPM_P1;HPM_P2
2022/04/27 00:01:45;;;;;;;16.73;11.77;;;13.40;51.80;;;;;;5025910;28;20431;-73
2022/04/27 00:04:11;;;;;;;20.13;11.53;;;13.30;51.60;;;;;;5024538;28;20219;-74
2022/04/27 00:06:36;;;;;;;16.63;11.80;;;13.20;50.90;;;;;;5025867;28;20555;-74
2022/04/27 00:09:03;;;;;;;18.70;11.87;;;13.00;51.50;;;;;;5025033;28;20235;-76
2022/04/27 00:11:29;;;;;;;23.00;13.47;;;12.70;52.80;;;;;;5023778;28;20188;-75
2022/04/27 00:13:56;;;;;;;17.10;12.87;;;12.70;54.10;;;;;;5023831;28;20462;-76
2022/04/27 00:16:22;;;;;;;19.27;13.00;;;12.50;55.50;;;;;;5027481;28;20306;-76
2022/04/27 00:18:48;;;;;;;24.10;14.60;;;13.30;56.90;;;;;;5030401;28;20452;-73
2022/04/27 00:21:13;;;;;;;20.33;13.80;;;13.00;55.20;;;;;;5024814;28;20174;-74
2022/04/27 00:23:39;;;;;;;20.83;13.87;;;13.20;53.60;;;;;;5029423;28;20427;-74
2022/04/27 00:26:05;;;;;;;21.27;14.57;;;13.50;51.80;;;;;;5025564;28;20547;-73
2022/04/27 00:28:31;;;;;;;18.03;11.97;;;13.40;52.30;;;;;;5020033;28;20743;-73
2022/04/27 00:30:56;;;;;;;15.47;10.83;;;13.40;50.90;;;;;;5032330;28;20485;-74
2022/04/27 00:33:22;;;;;;;13.50;9.80;;;13.30;51.20;;;;;;5027744;28;20669;-74
2022/04/27 00:35:48;;;;;;;14.23;10.33;;;13.40;49.90;;;;;;5022742;28;20190;-74
2022/04/27 00:38:14;;;;;;;14.07;10.23;;;13.30;50.20;;;;;;5021805;28;20217;-73
2022/04/27 00:40:39;;;;;;;17.33;12.13;;;13.20;51.10;;;;;;5029850;28;20219;-73
2022/04/27 00:43:05;;;;;;;17.20;11.17;;;12.90;52.50;;;;;;5023444;28;20187;-73
2022/04/27 00:45:30;;;;;;;17.90;12.33;;;13.00;52.30;;;;;;5025370;28;20311;-73
2022/04/27 00:47:56;;;;;;;17.67;11.93;;;13.00;51.90;;;;;;5021391;28;20722;-73
2022/04/27 00:50:22;;;;;;;17.00;11.80;;;13.20;51.70;;;;;;5026352;28;20247;-73
2022/04/27 00:52:49;;;;;;;17.47;12.13;;;13.30;52.40;;;;;;5020900;28;20544;-73
2022/04/27 00:55:15;;;;;;;16.90;11.50;;;13.30;52.40;;;;;;5022606;28;20239;-73
2022/04/27 00:57:46;;;;;;;15.70;11.17;;;13.20;52.60;;;;;;5020642;28;20428;-74
2022/04/27 01:00:12;;;;;;;16.50;11.63;;;13.40;51.60;;;;;;5026706;28;20192;-73
2022/04/27 01:02:38;;;;;;;24.00;12.23;;;13.30;51.60;;;;;;5031715;28;20502;-74
2022/04/27 01:05:09;;;;;;;19.17;12.93;;;13.30;51.70;;;;;;5029047;28;20857;-73
2022/04/27 01:07:36;;;;;;;19.50;13.57;;;13.40;51.70;;;;;;5024057;28;20628;-73
2022/04/27 01:10:02;;;;;;;21.73;13.83;;;13.30;51.60;;;;;;5022824;28;20435;-74
2022/04/27 01:12:28;;;;;;;20.27;13.90;;;13.30;51.90;;;;;;5024657;28;20416;-73
2022/04/27 01:14:54;;;;;;;20.60;13.30;;;13.30;51.60;;;;;;5028899;28;21032;-73
2022/04/27 01:17:22;;;;;;;23.07;14.63;;;13.30;51.60;;;;;;5026234;28;20428;-74
2022/04/27 01:19:47;;;;;;;19.27;12.80;;;13.30;51.70;;;;;;5027118;28;20196;-73
2022/04/27 01:22:13;;;;;;;21.47;14.20;;;13.30;51.70;;;;;;5015699;28;20929;-73
2022/04/27 01:24:40;;;;;;;21.30;14.57;;;13.30;52.80;;;;;;5023309;28;20714;-73
2022/04/27 01:27:06;;;;;;;22.20;13.97;;;13.30;52.00;;;;;;5021820;28;20648;-73
2022/04/27 01:29:33;;;;;;;18.83;13.43;;;13.40;51.70;;;;;;5028185;28;20502;-73
2022/04/27 01:32:01;;;;;;;23.00;14.63;;;13.60;50.60;;;;;;5022557;28;20327;-74
2022/04/27 01:34:27;;;;;;;25.87;15.70;;;13.60;51.90;;;;;;5026482;28;20506;-73
2022/04/27 01:36:54;;;;;;;22.67;14.47;;;13.60;51.90;;;;;;5013848;28;20527;-74
2022/04/27 01:39:24;;;;;;;19.37;13.33;;;13.50;52.30;;;;;;5022208;28;20232;-73
2022/04/27 01:41:50;;;;;;;23.27;13.77;;;13.60;50.20;;;;;;5013043;28;20790;-74
2022/04/27 01:44:16;;;;;;;21.70;15.07;;;13.60;50.80;;;;;;5022803;28;20419;-73
2022/04/27 01:46:42;;;;;;;23.70;15.60;;;13.40;53.30;;;;;;5023138;28;20726;-74
2022/04/27 01:49:07;;;;;;;21.23;14.43;;;13.50;51.70;;;;;;5017011;28;21065;-74
2022/04/27 01:54:17;;;;;;;23.30;14.83;;;13.70;48.90;;;;;;5013375;28;20184;-73
2022/04/27 01:56:44;;;;;;;22.07;13.60;;;13.80;48.20;;;;;;5016990;28;20420;-73
2022/04/27 01:59:09;;;;;;;22.90;14.77;;;13.80;50.10;;;;;;5028626;28;20213;-73
2022/04/27 02:01:35;;;;;;;26.83;14.87;;;13.80;49.90;;;;;;5017535;28;20804;-74
2022/04/27 02:04:01;;;;;;;25.50;14.80;;;13.60;51.90;;;;;;5019898;28;20669;-74
2022/04/27 02:06:28;;;;;;;22.97;14.70;;;13.40;52.60;;;;;;5015672;28;20423;-73
2022/04/27 02:08:55;;;;;;;25.83;16.13;;;13.50;53.10;;;;;;5022536;28;20231;-74
2022/04/27 02:11:24;;;;;;;23.03;14.27;;;13.50;52.60;;;;;;5030784;28;20422;-74
2022/04/27 02:13:54;;;;;;;20.30;14.00;;;13.50;51.30;;;;;;5029683;28;20431;-74
2022/04/27 02:16:28;;;;;;;22.43;14.40;;;13.60;48.80;;;;;;5030519;28;20412;-74
2022/04/27 02:18:55;;;;;;;20.03;14.00;;;13.60;49.70;;;;;;5030864;28;20447;-73
2022/04/27 02:21:22;;;;;;;22.30;14.43;;;13.40;50.50;;;;;;5022638;28;20910;-74
2022/04/27 02:23:49;;;;;;;22.10;13.57;;;13.60;49.20;;;;;;5028669;28;20873;-74
2022/04/27 02:26:15;;;;;;;24.40;14.87;;;13.60;47.90;;;;;;5029650;28;20426;-74
2022/04/27 02:28:41;;;;;;;24.60;14.80;;;13.50;49.00;;;;;;5029606;28;20503;-73
2022/04/27 02:31:07;;;;;;;19.60;13.40;;;13.30;51.60;;;;;;5029927;28;20961;-73
2022/04/27 02:33:34;;;;;;;26.27;14.43;;;13.30;51.60;;;;;;5022903;28;20173;-73
2022/04/27 02:35:59;;;;;;;26.47;14.27;;;13.30;51.60;;;;;;5027514;28;20806;-74
2022/04/27 02:38:27;;;;;;;22.57;14.77;;;13.20;52.30;;;;;;5027414;28;20434;-73
2022/04/27 02:40:54;;;;;;;23.57;14.57;;;13.20;51.80;;;;;;5029700;28;20256;-73
2022/04/27 02:43:21;;;;;;;23.53;14.37;;;13.20;51.60;;;;;;5020921;28;20435;-73
2022/04/27 02:45:46;;;;;;;23.23;14.97;;;13.10;52.30;;;;;;5026443;28;20431;-73
2022/04/27 02:48:12;;;;;;;25.10;15.57;;;13.20;53.50;;;;;;5027719;28;20811;-73
2022/04/27 02:53:22;;;;;;;22.47;13.57;;;13.40;53.70;;;;;;5026827;28;20235;-73
2022/04/27 02:55:48;;;;;;;23.90;14.90;;;13.20;53.30;;;;;;5026071;28;20431;-73
2022/04/27 02:58:13;;;;;;;22.47;13.93;;;13.20;53.30;;;;;;5023958;28;20511;-73
2022/04/27 03:00:39;;;;;;;28.57;14.73;;;13.30;53.20;;;;;;5026319;28;20205;-73
2022/04/27 03:03:07;;;;;;;19.77;12.53;;;13.30;52.90;;;;;;5028972;28;20176;-73
2022/04/27 03:05:33;;;;;;;21.53;14.23;;;13.10;53.70;;;;;;5033581;28;20645;-73
2022/04/27 03:07:58;;;;;;;25.60;15.90;;;13.20;54.80;;;;;;5029115;28;20516;-73
2022/04/27 03:10:24;;;;;;;25.10;15.33;;;13.20;54.20;;;;;;5028593;28;20197;-73
2022/04/27 03:12:50;;;;;;;26.33;16.00;;;13.20;53.30;;;;;;5012809;28;20177;-73
2022/04/27 03:15:15;;;;;;;21.77;14.37;;;13.10;53.50;;;;;;5021612;28;20179;-73
2022/04/27 03:17:41;;;;;;;20.77;13.90;;;12.90;54.10;;;;;;5028281;28;20173;-73
2022/04/27 03:20:07;;;;;;;22.07;14.67;;;12.80;53.60;;;;;;5028706;28;20199;-73
2022/04/27 03:22:33;;;;;;;19.60;13.40;;;12.90;54.30;;;;;;5025456;28;20177;-74
2022/04/27 03:24:58;;;;;;;24.43;15.00;;;13.20;51.90;;;;;;5024279;28;20442;-73
2022/04/27 03:27:24;;;;;;;23.10;14.40;;;13.30;52.50;;;;;;5027045;28;20178;-73
2022/04/27 03:29:50;;;;;;;21.60;13.47;;;13.20;52.70;;;;;;5025765;28;20976;-73
2022/04/27 03:32:15;;;;;;;23.60;14.60;;;13.10;54.30;;;;;;5030239;28;20184;-74
2022/04/27 03:34:41;;;;;;;23.43;13.87;;;12.40;56.70;;;;;;5026419;28;20243;-73
2022/04/27 03:37:07;;;;;;;23.47;15.10;;;12.00;61.00;;;;;;5023948;28;20182;-76
2022/04/27 03:39:33;;;;;;;22.40;15.13;;;11.50;66.30;;;;;;5025800;28;20585;-76
2022/04/27 03:41:59;;;;;;;22.80;14.43;;;11.70;65.50;;;;;;5029337;28;20415;-76
2022/04/27 03:44:24;;;;;;;26.60;15.73;;;11.80;64.90;;;;;;5028697;28;20849;-76
2022/04/27 03:46:50;;;;;;;22.73;14.83;;;11.60;65.90;;;;;;5029708;28;20188;-76
2022/04/27 03:49:16;;;;;;;26.43;15.27;;;11.50;66.90;;;;;;5023908;28;20232;-76
2022/04/27 03:51:41;;;;;;;23.13;14.93;;;11.80;64.50;;;;;;5025074;28;20182;-76
2022/04/27 03:54:07;;;;;;;25.07;15.87;;;11.90;67.20;;;;;;5028525;28;20172;-76
2022/04/27 03:56:32;;;;;;;24.33;15.30;;;12.10;62.40;;;;;;5025137;28;20189;-76
2022/04/27 03:58:59;;;;;;;24.17;15.83;;;12.40;64.60;;;;;;5026818;28;20671;-74
2022/04/27 04:01:24;;;;;;;26.07;15.03;;;12.50;58.20;;;;;;5023742;28;20177;-75
2022/04/27 04:03:50;;;;;;;25.60;15.63;;;12.70;55.20;;;;;;5028103;28;20910;-74
2022/04/27 04:06:16;;;;;;;24.17;15.33;;;12.60;54.50;;;;;;5024890;28;20183;-74
2022/04/27 04:08:41;;;;;;;26.63;15.67;;;12.70;53.60;;;;;;5032498;28;20212;-74
2022/04/27 04:11:07;;;;;;;26.17;15.20;;;12.80;53.40;;;;;;5025634;28;20629;-74
2022/04/27 04:13:33;;;;;;;24.33;15.57;;;12.90;53.40;;;;;;5025018;28;20199;-75
2022/04/27 04:15:58;;;;;;;25.93;16.43;;;12.90;53.30;;;;;;5031948;28;20197;-74
2022/04/27 04:18:24;;;;;;;26.00;16.40;;;12.90;54.20;;;;;;5006454;28;20267;-75
2022/04/27 04:20:50;;;;;;;25.50;16.03;;;12.80;54.90;;;;;;5007353;28;20185;-75
2022/04/27 04:23:15;;;;;;;28.97;17.30;;;12.70;56.80;;;;;;5020704;28;20188;-75
2022/04/27 04:28:31;;;;;;;26.50;15.07;;;13.10;53.50;;;;;;5023075;28;20276;-75
2022/04/27 04:31:03;;;;;;;24.60;15.80;;;13.10;53.50;;;;;;5020709;28;20518;-75
2022/04/27 04:33:28;;;;;;;24.37;15.23;;;13.20;53.30;;;;;;5021845;28;20416;-75
2022/04/27 04:35:56;;;;;;;29.73;15.53;;;13.20;52.00;;;;;;5029645;28;20837;-75
2022/04/27 04:38:22;;;;;;;24.27;15.00;;;13.30;51.40;;;;;;5026312;28;20190;-75
2022/04/27 04:40:47;;;;;;;23.90;14.50;;;13.40;51.80;;;;;;5018335;28;20420;-74
2022/04/27 04:43:14;;;;;;;23.97;15.43;;;13.30;51.70;;;;;;5022101;28;20938;-75
2022/04/27 04:45:39;;;;;;;28.03;15.97;;;13.30;53.40;;;;;;5022300;28;20450;-75
2022/04/27 04:48:05;;;;;;;28.77;15.03;;;13.20;53.40;;;;;;5018923;28;20514;-75
2022/04/27 04:50:31;;;;;;;25.87;16.67;;;13.10;54.50;;;;;;4999512;28;20203;-75
2022/04/27 04:52:57;;;;;;;22.90;15.73;;;13.10;55.20;;;;;;5023069;28;20427;-75
2022/04/27 04:55:22;;;;;;;24.87;16.17;;;13.20;55.00;;;;;;5020431;28;20663;-73
2022/04/27 04:57:48;;;;;;;27.77;17.80;;;13.10;55.30;;;;;;5013727;28;20177;-73
2022/04/27 05:00:14;;;;;;;25.20;16.13;;;13.10;55.40;;;;;;5022823;28;20203;-73
2022/04/27 05:02:39;;;;;;;24.90;16.53;;;13.10;55.00;;;;;;5026614;28;20173;-73
2022/04/27 05:05:06;;;;;;;26.50;15.87;;;13.10;55.00;;;;;;5021654;28;20444;-74
2022/04/27 05:07:33;;;;;;;28.20;16.90;;;13.10;54.90;;;;;;5025820;28;20185;-74
2022/04/27 05:09:58;;;;;;;28.23;17.83;;;13.20;53.30;;;;;;5020186;28;20505;-74
2022/04/27 05:12:24;;;;;;;31.53;18.40;;;13.50;50.90;;;;;;5030750;28;20432;-73
2022/04/27 05:14:51;;;;;;;33.73;19.33;;;13.50;50.60;;;;;;5023400;28;20416;-73
2022/04/27 05:17:16;;;;;;;35.83;21.77;;;13.40;50.90;;;;;;5023324;28;20267;-73
2022/04/27 05:19:42;;;;;;;32.70;19.23;;;13.20;51.50;;;;;;4999263;28;20959;-73
2022/04/27 05:22:08;;;;;;;28.37;17.40;;;13.10;53.30;;;;;;5021569;28;20421;-74
2022/04/27 05:24:34;;;;;;;24.00;16.33;;;12.70;52.70;;;;;;5029607;28;20245;-73
2022/04/27 05:27:00;;;;;;;27.90;16.60;;;12.50;56.10;;;;;;5030383;28;20944;-73
2022/04/27 05:32:10;;;;;;;24.93;15.60;;;12.40;56.20;;;;;;5030211;28;20433;-74
2022/04/27 05:34:36;;;;;;;27.93;16.80;;;12.60;56.20;;;;;;5021739;28;20582;-73
2022/04/27 05:37:03;;;;;;;22.77;15.57;;;12.90;55.80;;;;;;5027858;28;20433;-73
2022/04/27 05:39:28;;;;;;;22.40;15.13;;;12.70;53.80;;;;;;5020707;28;20542;-73
2022/04/27 05:41:54;;;;;;;24.30;15.60;;;12.50;56.80;;;;;;5026917;28;20554;-73
2022/04/27 05:44:23;;;;;;;22.07;14.80;;;12.90;55.20;;;;;;5028388;28;20181;-74
2022/04/27 05:46:50;;;;;;;22.47;15.50;;;12.40;54.60;;;;;;5025566;28;20511;-73
2022/04/27 05:49:16;;;;;;;24.40;15.07;;;12.10;58.40;;;;;;5024709;28;20474;-73
2022/04/27 05:51:42;;;;;;;21.33;15.17;;;11.90;60.50;;;;;;5026863;28;20434;-73
2022/04/27 05:54:07;;;;;;;28.00;16.20;;;11.80;60.60;;;;;;5005333;28;20495;-73
2022/04/27 05:56:34;;;;;;;20.60;15.17;;;11.70;61.20;;;;;;5021775;28;20649;-74
2022/04/27 05:59:01;;;;;;;26.07;16.80;;;11.90;60.40;;;;;;5022428;28;20197;-74
2022/04/27 06:01:27;;;;;;;25.43;16.77;;;12.20;58.90;;;;;;5008739;28;20423;-74
2022/04/27 06:03:55;;;;;;;24.67;16.70;;;12.80;54.40;;;;;;5019886;28;20424;-74
2022/04/27 06:06:22;;;;;;;23.27;16.80;;;13.20;53.00;;;;;;5022083;28;20471;-74
2022/04/27 06:08:48;;;;;;;26.47;17.20;;;13.50;50.00;;;;;;5019229;28;20479;-76
2022/04/27 06:11:13;;;;;;;33.60;17.30;;;13.80;51.30;;;;;;5002814;28;20427;-74
2022/04/27 06:13:39;;;;;;;26.07;16.70;;;14.10;50.70;;;;;;5020384;28;20443;-73
2022/04/27 06:16:05;;;;;;;24.30;16.53;;;14.30;49.70;;;;;;5016672;28;20177;-74
2022/04/27 06:18:31;;;;;;;22.17;15.50;;;14.40;47.40;;;;;;5022604;28;20389;-74
2022/04/27 06:20:56;;;;;;;21.93;15.97;;;14.70;44.60;;;;;;5030456;28;20234;-74
2022/04/27 06:23:23;;;;;;;24.50;16.67;;;14.40;44.50;;;;;;5022322;28;20503;-74
2022/04/27 06:25:49;;;;;;;24.77;16.87;;;14.70;46.30;;;;;;5020330;28;20269;-74
2022/04/27 06:28:18;;;;;;;20.83;15.97;;;14.80;43.50;;;;;;5030449;28;20482;-73
2022/04/27 06:30:45;;;;;;;23.80;16.50;;;14.60;44.50;;;;;;5030244;28;20879;-74
2022/04/27 06:33:11;;;;;;;26.67;17.33;;;15.10;43.50;;;;;;5021996;28;20581;-74
2022/04/27 06:35:37;;;;;;;28.33;18.23;;;15.30;41.80;;;;;;5022755;28;20513;-74
2022/04/27 06:38:03;;;;;;;21.20;16.80;;;15.30;43.60;;;;;;5025458;28;20178;-74
2022/04/27 06:40:29;;;;;;;19.67;15.67;;;15.30;45.10;;;;;;5033766;28;20585;-74
2022/04/27 06:42:56;;;;;;;20.70;15.00;;;14.90;41.70;;;;;;5026243;28;20185;-74
2022/04/27 06:45:25;;;;;;;19.70;14.73;;;14.50;40.10;;;;;;5033595;28;20879;-74
2022/04/27 06:47:51;;;;;;;33.33;14.60;;;14.00;43.70;;;;;;5034344;28;20415;-74
2022/04/27 06:50:17;;;;;;;24.57;15.83;;;14.20;42.90;;;;;;5026254;28;20442;-74
2022/04/27 06:52:46;;;;;;;17.40;13.60;;;14.00;42.30;;;;;;5034074;28;20192;-73
2022/04/27 06:55:12;;;;;;;21.30;14.57;;;13.60;43.70;;;;;;5034399;28;20184;-73
2022/04/27 06:57:37;;;;;;;23.27;17.70;;;13.80;44.30;;;;;;5033252;28;20790;-74
2022/04/27 07:00:04;;;;;;;29.70;19.10;;;14.10;44.80;;;;;;5026775;28;20448;-74
2022/04/27 07:02:30;;;;;;;36.23;19.63;;;13.80;44.50;;;;;;5033872;28;20195;-74
2022/04/27 07:05:00;;;;;;;25.53;18.60;;;13.90;46.30;;;;;;5031607;28;20440;-75
2022/04/27 07:07:26;;;;;;;31.13;19.70;;;14.00;46.10;;;;;;5022417;28;20436;-73
2022/04/27 07:09:53;;;;;;;26.30;17.70;;;14.20;47.30;;;;;;5032204;28;20469;-75
2022/04/27 07:12:19;;;;;;;25.17;18.20;;;14.20;47.30;;;;;;5025321;28;20430;-74
2022/04/27 07:14:46;;;;;;;26.50;16.80;;;14.70;45.50;;;;;;5029920;28;20940;-74
2022/04/27 07:17:12;;;;;;;27.63;17.30;;;15.00;44.10;;;;;;5024194;28;20995;-75
2022/04/27 07:19:38;;;;;;;25.83;17.33;;;14.50;43.10;;;;;;5025841;28;20473;-76
2022/04/27 07:22:05;;;;;;;26.37;17.30;;;13.90;43.10;;;;;;5024452;28;20427;-74
2022/04/27 07:24:31;;;;;;;24.27;17.30;;;14.20;45.40;;;;;;5021922;28;20259;-74
2022/04/27 07:26:56;;;;;;;24.30;16.70;;;14.40;44.10;;;;;;5030386;28;21155;-74
2022/04/27 07:29:22;;;;;;;20.93;15.47;;;14.80;43.10;;;;;;5027016;28;20549;-74
2022/04/27 07:31:48;;;;;;;21.57;15.70;;;15.00;42.60;;;;;;5022447;28;20203;-74
2022/04/27 07:34:14;;;;;;;29.00;15.47;;;15.10;40.90;;;;;;5030235;28;20559;-74
2022/04/27 07:36:39;;;;;;;20.90;14.70;;;14.90;39.30;;;;;;5034269;28;20423;-74
2022/04/27 07:39:08;;;;;;;24.17;15.53;;;14.90;42.00;;;;;;5031777;28;20764;-74
2022/04/27 07:41:34;;;;;;;23.10;16.20;;;15.10;42.70;;;;;;5022207;28;20186;-74
2022/04/27 07:44:00;;;;;;;21.90;16.17;;;15.50;42.10;;;;;;5014023;28;20411;-74
2022/04/27 07:46:25;;;;;;;21.43;15.20;;;15.90;38.60;;;;;;5021540;28;21032;-74
2022/04/27 07:48:54;;;;;;;20.90;15.60;;;15.90;39.00;;;;;;5022988;28;20213;-75
2022/04/27 07:51:21;;;;;;;23.63;13.43;;;15.00;38.80;;;;;;5016933;28;20173;-74
2022/04/27 07:53:47;;;;;;;22.33;14.57;;;15.10;38.70;;;;;;5025783;28;20419;-73
2022/04/27 07:56:13;;;;;;;25.50;12.27;;;16.00;37.50;;;;;;5027079;28;20862;-74
2022/04/27 07:58:38;;;;;;;13.87;11.20;;;16.00;34.70;;;;;;5015593;28;20459;-74
2022/04/27 08:01:05;;;;;;;16.97;10.77;;;16.20;36.00;;;;;;5024433;28;20511;-73
2022/04/27 08:03:30;;;;;;;15.80;10.77;;;16.70;34.30;;;;;;5032901;28;20203;-74
2022/04/27 08:05:57;;;;;;;12.37;10.47;;;16.80;34.90;;;;;;5029682;28;20454;-73
2022/04/27 08:08:23;;;;;;;12.80;10.10;;;17.30;34.10;;;;;;5028919;28;20203;-75
2022/04/27 08:10:48;;;;;;;13.23;10.60;;;17.30;31.80;;;;;;5029112;28;20510;-74
2022/04/27 08:13:17;;;;;;;12.23;9.87;;;17.20;31.00;;;;;;5026753;28;20428;-74
2022/04/27 08:15:44;;;;;;;12.67;9.60;;;17.40;30.80;;;;;;5028794;28;20648;-74
2022/04/27 08:18:10;;;;;;;13.40;10.70;;;16.60;33.40;;;;;;5025774;28;20438;-74
2022/04/27 08:23:29;;;;;;;14.30;10.83;;;17.10;32.30;;;;;;5031777;28;20486;-74
2022/04/27 08:25:58;;;;;;;15.53;9.33;;;17.30;33.90;;;;;;5023700;28;20438;-74
2022/04/27 08:28:24;;;;;;;13.63;10.03;;;16.70;32.80;;;;;;5021217;28;20559;-74
2022/04/27 08:30:50;;;;;;;13.43;9.90;;;16.60;33.40;;;;;;5028820;28;20846;-74
2022/04/27 08:33:17;;;;;;;11.10;9.00;;;16.20;31.90;;;;;;5028225;28;20230;-74
2022/04/27 08:35:43;;;;;;;11.80;9.07;;;15.90;35.30;;;;;;5031053;28;20416;-74
2022/04/27 08:38:10;;;;;;;10.90;8.93;;;16.70;32.80;;;;;;5028330;28;20427;-74
2022/04/27 08:40:38;;;;;;;9.83;7.97;;;16.80;30.60;;;;;;5023601;28;20969;-74
2022/04/27 08:43:04;;;;;;;11.73;8.93;;;17.10;29.60;;;;;;5024159;28;20482;-74
2022/04/27 08:45:30;;;;;;;13.70;8.50;;;17.00;30.60;;;;;;5017265;28;20508;-74
2022/04/27 08:47:56;;;;;;;11.60;8.60;;;16.50;30.00;;;;;;5028728;28;20988;-74
2022/04/27 08:50:24;;;;;;;12.30;9.00;;;16.70;31.50;;;;;;5024278;28;20465;-74
2022/04/27 08:52:50;;;;;;;11.57;8.90;;;16.80;32.70;;;;;;5015267;28;20440;-74
2022/04/27 08:55:17;;;;;;;13.00;9.20;;;16.50;30.10;;;;;;5030430;28;20430;-74
2022/04/27 08:57:43;;;;;;;9.80;7.73;;;19.80;36.40;;;;;;5014176;28;20433;-74
2022/04/27 09:00:17;;;;;;;11.57;8.27;;;16.40;30.90;;;;;;5014802;28;20497;-74
2022/04/27 09:02:44;;;;;;;13.43;8.20;;;16.60;32.10;;;;;;5024966;28;20870;-74
2022/04/27 09:05:09;;;;;;;9.17;7.10;;;16.90;30.80;;;;;;5029580;28;20425;-74
2022/04/27 09:07:46;;;;;;;8.20;7.00;;;17.20;29.70;;;;;;5032306;28;20458;-74
2022/04/27 09:10:21;;;;;;;9.57;6.87;;;16.90;29.00;;;;;;5031691;28;20212;-75
2022/04/27 09:12:47;;;;;;;8.57;6.93;;;17.10;29.00;;;;;;5022302;28;20435;-73
2022/04/27 09:15:15;;;;;;;8.70;7.30;;;17.10;28.90;;;;;;5026293;28;20477;-74
2022/04/27 09:23:37;;;;;;;8.10;6.90;;;17.60;28.00;;;;;;5022768;28;20954;-74
2022/04/27 09:26:21;;;;;;;8.60;6.50;;;17.10;28.70;;;;;;5027236;28;20420;-74
2022/04/27 09:28:53;;;;;;;8.77;6.80;;;17.40;30.10;;;;;;5006555;28;20467;-74
2022/04/27 09:31:36;;;;;;;9.10;6.90;;;17.10;29.30;;;;;;5028302;28;20424;-73
2022/04/27 09:34:27;;;;;;;8.60;6.97;;;17.30;29.90;;;;;;5024226;28;20514;-74
2022/04/27 09:37:11;;;;;;;9.37;7.13;;;17.60;27.30;;;;;;5028211;28;20415;-73
2022/04/27 09:39:37;;;;;;;8.50;6.40;;;17.20;28.90;;;;;;5026918;28;20729;-79
2022/04/27 09:42:05;;;;;;;11.30;6.60;;;16.70;28.60;;;;;;5024949;28;20452;-74
2022/04/27 09:44:33;;;;;;;10.37;6.83;;;17.10;28.70;;;;;;5009375;28;20189;-74
2022/04/27 09:47:03;;;;;;;7.90;6.60;;;17.70;27.50;;;;;;5023771;28;20448;-74
2022/04/27 09:49:32;;;;;;;10.13;6.50;;;18.00;28.90;;;;;;5019405;28;20520;-75
2022/04/27 09:52:00;;;;;;;7.83;6.67;;;18.10;27.60;;;;;;5024502;28;20450;-74
2022/04/27 09:54:28;;;;;;;12.10;6.20;;;18.20;27.70;;;;;;5013330;28;21015;-74
2022/04/27 09:57:00;;;;;;;9.73;6.80;;;18.60;26.40;;;;;;5028446;28;20420;-74
2022/04/27 09:59:30;;;;;;;7.63;5.87;;;19.00;26.60;;;;;;5013108;28;21021;-74
2022/04/27 10:02:09;;;;;;;8.37;6.03;;;19.20;25.00;;;;;;5027519;28;20423;-74
2022/04/27 10:04:36;;;;;;;7.40;5.60;;;19.20;26.20;;;;;;5016342;28;20841;-74
2022/04/27 10:07:07;;;;;;;7.90;6.40;;;19.60;25.70;;;;;;5022582;28;20953;-75
2022/04/27 10:09:33;;;;;;;10.93;6.83;;;19.60;25.10;;;;;;5013177;28;20566;-73
2022/04/27 10:12:03;;;;;;;11.70;7.23;;;19.50;26.00;;;;;;5002750;28;20452;-73
2022/04/27 10:14:29;;;;;;;8.87;7.20;;;19.70;26.10;;;;;;5027202;28;20430;-73
2022/04/27 10:16:56;;;;;;;7.63;6.50;;;19.50;25.60;;;;;;5028942;28;20939;-74
2022/04/27 10:19:22;;;;;;;9.20;7.10;;;19.40;25.50;;;;;;5025967;28;20545;-74
2022/04/27 10:21:59;;;;;;;9.60;7.70;;;19.50;25.20;;;;;;5025308;28;20420;-72
2022/04/27 10:24:33;;;;;;;10.73;6.97;;;19.00;26.10;;;;;;5030451;28;20450;-73
2022/04/27 10:27:18;;;;;;;8.97;7.10;;;19.00;27.10;;;;;;5022442;28;20419;-73
2022/04/27 10:30:01;;;;;;;10.13;6.33;;;19.20;25.40;;;;;;5024200;28;20464;-75
2022/04/27 10:32:43;;;;;;;10.57;7.10;;;19.50;25.60;;;;;;5025599;28;20440;-75
2022/04/27 10:35:11;;;;;;;8.87;7.07;;;19.10;26.90;;;;;;5020933;28;20411;-75
2022/04/27 10:38:23;;;;;;;10.80;7.47;;;18.70;25.80;;;;;;5018865;28;20494;-75
2022/04/27 10:40:48;;;;;;;10.73;7.60;;;19.10;25.20;;;;;;4935142;29;20447;-75
2022/04/27 10:43:31;;;;;;;8.53;6.37;;;19.20;25.80;;;;;;4930964;29;20798;-75
2022/04/27 10:45:57;;;;;;;8.33;5.80;;;19.50;25.60;;;;;;4930301;29;20191;-77
2022/04/27 10:48:48;;;;;;;8.47;6.27;;;19.00;25.20;;;;;;4930713;29;20462;-74
2022/04/27 10:51:13;;;;;;;7.70;6.30;;;19.20;25.40;;;;;;4924939;29;20436;-74
2022/04/27 10:53:41;;;;;;;7.93;6.03;;;18.80;27.10;;;;;;4920842;29;20442;-75
2022/04/27 10:56:36;;;;;;;9.30;6.73;;;18.80;26.60;;;;;;4930584;29;20191;-74
2022/04/27 10:59:02;;;;;;;9.60;5.97;;;18.90;28.00;;;;;;4918117;29;20993;-75
2022/04/27 11:01:31;;;;;;;8.67;6.10;;;19.40;26.50;;;;;;4933227;29;20451;-75
2022/04/27 11:04:04;;;;;;;7.27;5.70;;;19.70;25.80;;;;;;4934025;29;21254;-74
2022/04/27 11:06:56;;;;;;;7.03;5.70;;;19.00;25.30;;;;;;4931610;29;20446;-75
2022/04/27 11:10:06;;;;;;;10.03;6.20;;;19.20;26.80;;;;;;4930140;29;20475;-75
2022/04/27 11:12:33;;;;;;;11.17;6.13;;;18.80;26.30;;;;;;4912377;29;20944;-75
2022/04/27 11:15:00;;;;;;;8.57;6.17;;;18.90;26.80;;;;;;4911964;28;21031;-76
2022/04/27 11:17:29;;;;;;;8.80;6.50;;;19.10;27.00;;;;;;4970985;28;20924;-74
2022/04/27 11:19:55;;;;;;;7.50;5.77;;;19.30;27.70;;;;;;4987266;28;20454;-76
2022/04/27 11:22:22;;;;;;;10.00;6.70;;;18.30;25.70;;;;;;4990366;28;20828;-76
2022/04/27 11:24:50;;;;;;;9.17;6.70;;;18.80;26.00;;;;;;4992536;28;20440;-76
2022/04/27 11:27:36;;;;;;;15.13;6.50;;;18.60;26.90;;;;;;4990779;28;20451;-75
2022/04/27 11:30:04;;;;;;;10.40;7.10;;;18.40;26.30;;;;;;4993346;28;20555;-76
2022/04/27 11:32:30;;;;;;;9.43;6.20;;;18.50;26.40;;;;;;4990687;28;20428;-75
2022/04/27 11:34:56;;;;;;;9.37;6.00;;;18.20;27.40;;;;;;4996087;28;20923;-76
2022/04/27 11:37:22;;;;;;;10.60;6.73;;;18.20;29.50;;;;;;4994333;28;20205;-76
2022/04/27 11:39:49;;;;;;;10.87;7.00;;;17.60;28.70;;;;;;4996034;28;20457;-75
2022/04/27 11:42:16;;;;;;;9.27;6.90;;;17.90;28.70;;;;;;4994836;28;20933;-75
2022/04/27 11:44:43;;;;;;;8.13;6.57;;;18.20;27.80;;;;;;4992191;28;20442;-78
2022/04/27 11:47:26;;;;;;;16.97;6.80;;;18.70;26.50;;;;;;5020560;28;20419;-75
2022/04/27 11:49:59;;;;;;;10.50;7.00;;;19.10;27.20;;;;;;5035716;28;20462;-76
2022/04/27 11:52:26;;;;;;;9.83;6.10;;;19.50;25.60;;;;;;5027639;28;20415;-75
2022/04/27 11:54:52;;;;;;;11.03;6.63;;;19.80;25.80;;;;;;5031039;28;20527;-76
2022/04/27 11:57:23;;;;;;;8.00;6.10;;;19.40;25.90;;;;;;5025839;28;20502;-77
2022/04/27 11:59:57;;;;;;;10.50;7.67;;;19.50;27.80;;;;;;5025210;28;20495;-76
2022/04/27 12:02:25;;;;;;;8.53;6.27;;;19.90;25.10;;;;;;5027169;28;20437;-75
2022/04/27 12:04:51;;;;;;;7.37;6.47;;;19.50;26.20;;;;;;5023983;28;20440;-76
2022/04/27 12:07:18;;;;;;;7.30;5.97;;;19.20;28.10;;;;;;5021423;28;20431;-75
2022/04/27 12:10:01;;;;;;;7.83;6.13;;;19.30;26.10;;;;;;5028138;28;20499;-75
2022/04/27 12:12:28;;;;;;;7.40;5.37;;;19.90;25.70;;;;;;5036662;28;20417;-76
2022/04/27 12:14:56;;;;;;;9.67;5.43;;;19.60;27.20;;;;;;5035053;28;20526;-76
2022/04/27 12:17:42;;;;;;;8.27;5.97;;;19.60;26.20;;;;;;5021213;28;20424;-76
2022/04/27 12:20:11;;;;;;;7.07;5.57;;;20.20;26.10;;;;;;5034621;28;20450;-76
2022/04/27 12:22:50;;;;;;;6.30;5.30;;;19.70;25.80;;;;;;5025492;28;20433;-77
2022/04/27 12:25:15;;;;;;;6.40;5.40;;;19.80;25.80;;;;;;5028374;28;20923;-76
2022/04/27 12:27:41;;;;;;;6.70;5.60;;;21.70;26.10;;;;;;5024716;28;20442;-76
2022/04/27 12:30:07;;;;;;;6.57;5.87;;;20.00;25.70;;;;;;5022156;28;20244;-76
2022/04/27 12:32:33;;;;;;;7.60;5.77;;;20.20;25.00;;;;;;5020366;28;20181;-77
2022/04/27 12:37:50;;;;;;;6.67;5.37;;;20.00;25.40;;;;;;5025105;28;20439;-76
2022/04/27 12:40:17;;;;;;;6.47;5.43;;;20.10;23.80;;;;;;5029392;28;20727;-77
2022/04/27 12:42:59;;;;;;;6.80;4.97;;;20.70;24.70;;;;;;5031173;28;20202;-76
2022/04/27 12:45:25;;;;;;;6.47;4.70;;;21.80;23.50;;;;;;5020775;28;20417;-76
2022/04/27 12:47:51;;;;;;;8.20;5.07;;;23.60;21.80;;;;;;5027497;28;20736;-76
2022/04/27 12:50:18;;;;;;;6.63;4.10;;;25.90;21.50;;;;;;5013466;28;20557;-76
2022/04/27 12:52:45;;;;;;;5.73;4.20;;;26.60;15.80;;;;;;5028347;28;20454;-76
2022/04/27 12:55:15;;;;;;;5.97;4.47;;;26.70;18.00;;;;;;5028284;28;20478;-76
2022/04/27 12:57:49;;;;;;;4.80;4.17;;;27.20;17.00;;;;;;5031475;28;20509;-75
2022/04/27 13:00:18;;;;;;;4.83;3.57;;;27.50;15.30;;;;;;5030223;28;20538;-75